sensor_id;sensor_type;location;lat;lon;timestamp;P1;durP1;ratioP1;P2;durP2;ratioP2
38457;SDS011;24239;48.058;10.486;2024-02-21T00:02:23;6.15;;;3.00;;
38457;SDS011;24239;48.058;10.486;2024-02-21T00:05:09;6.47;;;3.38;;
38457;SDS011;24239;48.058;10.486;2024-02-21T00:07:55;4.45;;;2.97;;
38457;SDS011;24239;48.058;10.486;2024-02-21T00:10:40;3.95;;;3.00;;
38457;SDS011;24239;48.058;10.486;2024-02-21T00:13:26;6.28;;;3.25;;
38457;SDS011;24239;48.058;10.486;2024-02-21T00:16:12;4.72;;;3.00;;
38457;SDS011;24239;48.058;10.486;2024-02-21T00:18:59;7.03;;;3.13;;
38457;SDS011;24239;48.058;10.486;2024-02-21T00:21:44;5.55;;;3.15;;
38457;SDS011;24239;48.058;10.486;2024-02-21T00:24:30;7.03;;;3.17;;
38457;SDS011;24239;48.058;10.486;2024-02-21T00:27:16;10.30;;;3.55;;
38457;SDS011;24239;48.058;10.486;2024-02-21T00:30:02;7.00;;;2.90;;
38457;SDS011;24239;48.058;10.486;2024-02-21T00:32:48;5.45;;;3.00;;
38457;SDS011;24239;48.058;10.486;2024-02-21T00:35:34;4.13;;;2.78;;
38457;SDS011;24239;48.058;10.486;2024-02-21T00:38:19;8.60;;;3.13;;
38457;SDS011;24239;48.058;10.486;2024-02-21T00:41:06;8.18;;;2.78;;
38457;SDS011;24239;48.058;10.486;2024-02-21T00:43:51;6.43;;;3.50;;
38457;SDS011;24239;48.058;10.486;2024-02-21T00:46:37;7.40;;;3.03;;
38457;SDS011;24239;48.058;10.486;2024-02-21T00:49:24;8.75;;;3.50;;
38457;SDS011;24239;48.058;10.486;2024-02-21T00:52:09;7.05;;;2.83;;
38457;SDS011;24239;48.058;10.486;2024-02-21T00:54:55;5.65;;;2.78;;
38457;SDS011;24239;48.058;10.486;2024-02-21T00:57:41;3.17;;;2.72;;
38457;SDS011;24239;48.058;10.486;2024-02-21T01:00:27;6.03;;;3.53;;
38457;SDS011;24239;48.058;10.486;2024-02-21T01:03:13;11.95;;;3.45;;
38457;SDS011;24239;48.058;10.486;2024-02-21T01:05:58;9.38;;;2.70;;
38457;SDS011;24239;48.058;10.486;2024-02-21T01:08:44;3.83;;;3.00;;
38457;SDS011;24239;48.058;10.486;2024-02-21T01:11:30;5.78;;;2.88;;
38457;SDS011;24239;48.058;10.486;2024-02-21T01:14:15;5.60;;;2.47;;
38457;SDS011;24239;48.058;10.486;2024-02-21T01:17:02;3.58;;;2.67;;
38457;SDS011;24239;48.058;10.486;2024-02-21T01:19:47;8.23;;;3.30;;
38457;SDS011;24239;48.058;10.486;2024-02-21T01:22:33;11.40;;;3.60;;
38457;SDS011;24239;48.058;10.486;2024-02-21T01:25:19;8.52;;;2.90;;
38457;SDS011;24239;48.058;10.486;2024-02-21T01:28:04;4.60;;;2.80;;
38457;SDS011;24239;48.058;10.486;2024-02-21T01:30:50;3.25;;;2.95;;
38457;SDS011;24239;48.058;10.486;2024-02-21T01:33:37;6.82;;;2.78;;
38457;SDS011;24239;48.058;10.486;2024-02-21T01:36:24;3.85;;;2.55;;
38457;SDS011;24239;48.058;10.486;2024-02-21T01:39:09;6.32;;;3.03;;
38457;SDS011;24239;48.058;10.486;2024-02-21T01:41:55;4.80;;;2.67;;
38457;SDS011;24239;48.058;10.486;2024-02-21T01:44:41;5.85;;;2.80;;
38457;SDS011;24239;48.058;10.486;2024-02-21T01:47:27;4.32;;;2.45;;
38457;SDS011;24239;48.058;10.486;2024-02-21T01:50:13;4.35;;;2.80;;
38457;SDS011;24239;48.058;10.486;2024-02-21T01:53:00;7.68;;;3.00;;
38457;SDS011;24239;48.058;10.486;2024-02-21T01:55:45;5.10;;;2.70;;
38457;SDS011;24239;48.058;10.486;2024-02-21T01:58:32;8.55;;;2.80;;
38457;SDS011;24239;48.058;10.486;2024-02-21T02:01:19;4.38;;;2.70;;
38457;SDS011;24239;48.058;10.486;2024-02-21T02:04:04;4.00;;;2.35;;
38457;SDS011;24239;48.058;10.486;2024-02-21T02:06:50;4.78;;;2.60;;
38457;SDS011;24239;48.058;10.486;2024-02-21T02:09:36;3.67;;;2.35;;
38457;SDS011;24239;48.058;10.486;2024-02-21T02:12:22;5.03;;;2.72;;
38457;SDS011;24239;48.058;10.486;2024-02-21T02:15:07;2.58;;;2.35;;
38457;SDS011;24239;48.058;10.486;2024-02-21T02:17:53;8.18;;;2.72;;
38457;SDS011;24239;48.058;10.486;2024-02-21T02:20:39;4.82;;;2.70;;
38457;SDS011;24239;48.058;10.486;2024-02-21T02:23:25;6.10;;;2.83;;
38457;SDS011;24239;48.058;10.486;2024-02-21T02:29:03;5.40;;;3.40;;
38457;SDS011;24239;48.058;10.486;2024-02-21T02:31:49;3.05;;;2.75;;
38457;SDS011;24239;48.058;10.486;2024-02-21T02:34:35;5.90;;;2.67;;
38457;SDS011;24239;48.058;10.486;2024-02-21T02:37:20;8.02;;;3.72;;
38457;SDS011;24239;48.058;10.486;2024-02-21T02:40:06;7.13;;;3.90;;
38457;SDS011;24239;48.058;10.486;2024-02-21T02:42:53;7.25;;;3.30;;
38457;SDS011;24239;48.058;10.486;2024-02-21T02:45:40;6.18;;;3.10;;
38457;SDS011;24239;48.058;10.486;2024-02-21T02:48:26;6.15;;;3.03;;
38457;SDS011;24239;48.058;10.486;2024-02-21T02:51:11;8.05;;;2.97;;
38457;SDS011;24239;48.058;10.486;2024-02-21T02:53:57;3.05;;;2.53;;
38457;SDS011;24239;48.058;10.486;2024-02-21T02:56:43;3.10;;;2.40;;
38457;SDS011;24239;48.058;10.486;2024-02-21T02:59:29;3.17;;;2.40;;
38457;SDS011;24239;48.058;10.486;2024-02-21T03:02:14;4.30;;;2.35;;
38457;SDS011;24239;48.058;10.486;2024-02-21T03:05:00;3.58;;;2.47;;
38457;SDS011;24239;48.058;10.486;2024-02-21T03:07:46;5.28;;;2.58;;
38457;SDS011;24239;48.058;10.486;2024-02-21T03:10:32;4.78;;;2.65;;
38457;SDS011;24239;48.058;10.486;2024-02-21T03:13:18;8.65;;;3.50;;
38457;SDS011;24239;48.058;10.486;2024-02-21T03:16:04;7.03;;;2.30;;
38457;SDS011;24239;48.058;10.486;2024-02-21T03:18:53;4.20;;;2.58;;
38457;SDS011;24239;48.058;10.486;2024-02-21T03:21:38;3.50;;;2.38;;
38457;SDS011;24239;48.058;10.486;2024-02-21T03:24:24;3.28;;;2.28;;
38457;SDS011;24239;48.058;10.486;2024-02-21T03:27:10;5.78;;;2.63;;
38457;SDS011;24239;48.058;10.486;2024-02-21T03:29:56;8.25;;;3.28;;
38457;SDS011;24239;48.058;10.486;2024-02-21T03:32:41;4.00;;;2.20;;
38457;SDS011;24239;48.058;10.486;2024-02-21T03:35:27;4.72;;;2.53;;
38457;SDS011;24239;48.058;10.486;2024-02-21T03:38:13;2.80;;;2.03;;
38457;SDS011;24239;48.058;10.486;2024-02-21T03:40:58;2.33;;;2.00;;
38457;SDS011;24239;48.058;10.486;2024-02-21T03:43:44;5.57;;;2.30;;
38457;SDS011;24239;48.058;10.486;2024-02-21T03:46:30;5.22;;;2.55;;
38457;SDS011;24239;48.058;10.486;2024-02-21T03:49:16;2.65;;;2.05;;
38457;SDS011;24239;48.058;10.486;2024-02-21T03:52:02;2.20;;;2.00;;
38457;SDS011;24239;48.058;10.486;2024-02-21T03:54:47;7.07;;;2.42;;
38457;SDS011;24239;48.058;10.486;2024-02-21T03:57:33;3.38;;;2.10;;
38457;SDS011;24239;48.058;10.486;2024-02-21T04:00:19;3.05;;;2.17;;
38457;SDS011;24239;48.058;10.486;2024-02-21T04:03:04;3.42;;;2.00;;
38457;SDS011;24239;48.058;10.486;2024-02-21T04:05:51;2.60;;;2.17;;
38457;SDS011;24239;48.058;10.486;2024-02-21T04:08:38;4.00;;;2.25;;
38457;SDS011;24239;48.058;10.486;2024-02-21T04:11:24;4.90;;;2.20;;
38457;SDS011;24239;48.058;10.486;2024-02-21T04:14:10;2.55;;;2.20;;
38457;SDS011;24239;48.058;10.486;2024-02-21T04:16:56;2.53;;;2.30;;
38457;SDS011;24239;48.058;10.486;2024-02-21T04:19:51;3.42;;;2.35;;
38457;SDS011;24239;48.058;10.486;2024-02-21T04:22:54;4.20;;;2.33;;
38457;SDS011;24239;48.058;10.486;2024-02-21T04:25:40;3.90;;;2.22;;
38457;SDS011;24239;48.058;10.486;2024-02-21T04:28:26;8.63;;;3.28;;
38457;SDS011;24239;48.058;10.486;2024-02-21T04:31:11;3.47;;;2.92;;
38457;SDS011;24239;48.058;10.486;2024-02-21T04:33:57;6.75;;;2.83;;
38457;SDS011;24239;48.058;10.486;2024-02-21T04:36:43;4.95;;;2.58;;
38457;SDS011;24239;48.058;10.486;2024-02-21T04:39:28;2.97;;;2.50;;
38457;SDS011;24239;48.058;10.486;2024-02-21T04:42:14;4.15;;;2.92;;
38457;SDS011;24239;48.058;10.486;2024-02-21T04:45:00;3.80;;;2.70;;
38457;SDS011;24239;48.058;10.486;2024-02-21T04:47:46;6.57;;;3.03;;
38457;SDS011;24239;48.058;10.486;2024-02-21T04:50:32;4.60;;;3.05;;
38457;SDS011;24239;48.058;10.486;2024-02-21T04:53:18;4.63;;;2.80;;
38457;SDS011;24239;48.058;10.486;2024-02-21T04:56:04;4.40;;;2.72;;
38457;SDS011;24239;48.058;10.486;2024-02-21T04:58:50;6.80;;;2.80;;
38457;SDS011;24239;48.058;10.486;2024-02-21T05:01:35;4.03;;;3.08;;
38457;SDS011;24239;48.058;10.486;2024-02-21T05:04:21;6.40;;;3.47;;
38457;SDS011;24239;48.058;10.486;2024-02-21T05:07:07;4.43;;;3.00;;
38457;SDS011;24239;48.058;10.486;2024-02-21T05:09:53;7.45;;;3.72;;
38457;SDS011;24239;48.058;10.486;2024-02-21T05:12:38;10.43;;;4.38;;
38457;SDS011;24239;48.058;10.486;2024-02-21T05:15:24;6.15;;;3.50;;
38457;SDS011;24239;48.058;10.486;2024-02-21T05:18:10;7.55;;;3.97;;
38457;SDS011;24239;48.058;10.486;2024-02-21T05:20:56;6.25;;;3.50;;
38457;SDS011;24239;48.058;10.486;2024-02-21T05:23:44;3.33;;;3.00;;
38457;SDS011;24239;48.058;10.486;2024-02-21T05:26:30;8.07;;;4.10;;
38457;SDS011;24239;48.058;10.486;2024-02-21T05:29:16;6.07;;;2.70;;
38457;SDS011;24239;48.058;10.486;2024-02-21T05:32:01;3.92;;;3.00;;
38457;SDS011;24239;48.058;10.486;2024-02-21T05:34:50;7.53;;;3.65;;
38457;SDS011;24239;48.058;10.486;2024-02-21T05:37:36;5.30;;;3.47;;
38457;SDS011;24239;48.058;10.486;2024-02-21T05:40:22;4.97;;;3.20;;
38457;SDS011;24239;48.058;10.486;2024-02-21T05:43:08;5.07;;;4.05;;
38457;SDS011;24239;48.058;10.486;2024-02-21T05:45:54;7.63;;;6.28;;
38457;SDS011;24239;48.058;10.486;2024-02-21T05:48:40;8.25;;;6.35;;
38457;SDS011;24239;48.058;10.486;2024-02-21T05:51:25;7.20;;;3.80;;
38457;SDS011;24239;48.058;10.486;2024-02-21T05:54:33;3.22;;;2.80;;
38457;SDS011;24239;48.058;10.486;2024-02-21T05:57:56;2.60;;;2.22;;
38457;SDS011;24239;48.058;10.486;2024-02-21T06:00:42;2.78;;;2.15;;
38457;SDS011;24239;48.058;10.486;2024-02-21T06:07:10;5.10;;;2.67;;
38457;SDS011;24239;48.058;10.486;2024-02-21T06:09:56;6.85;;;2.65;;
38457;SDS011;24239;48.058;10.486;2024-02-21T06:12:42;6.05;;;2.60;;
38457;SDS011;24239;48.058;10.486;2024-02-21T06:15:28;3.42;;;2.72;;
38457;SDS011;24239;48.058;10.486;2024-02-21T06:18:14;5.38;;;3.03;;
38457;SDS011;24239;48.058;10.486;2024-02-21T06:20:59;7.15;;;3.28;;
38457;SDS011;24239;48.058;10.486;2024-02-21T06:23:45;4.82;;;2.95;;
38457;SDS011;24239;48.058;10.486;2024-02-21T06:26:31;2.90;;;2.70;;
38457;SDS011;24239;48.058;10.486;2024-02-21T06:29:16;5.38;;;3.17;;
38457;SDS011;24239;48.058;10.486;2024-02-21T06:32:02;6.63;;;3.60;;
38457;SDS011;24239;48.058;10.486;2024-02-21T06:34:48;4.15;;;2.88;;
38457;SDS011;24239;48.058;10.486;2024-02-21T06:37:34;5.30;;;2.65;;
38457;SDS011;24239;48.058;10.486;2024-02-21T06:40:21;6.25;;;2.88;;
38457;SDS011;24239;48.058;10.486;2024-02-21T06:43:07;4.72;;;3.03;;
38457;SDS011;24239;48.058;10.486;2024-02-21T06:45:53;7.50;;;4.03;;
38457;SDS011;24239;48.058;10.486;2024-02-21T06:48:39;6.45;;;4.30;;
38457;SDS011;24239;48.058;10.486;2024-02-21T06:51:25;9.80;;;4.40;;
38457;SDS011;24239;48.058;10.486;2024-02-21T06:54:11;9.48;;;4.80;;
38457;SDS011;24239;48.058;10.486;2024-02-21T06:56:57;9.70;;;5.10;;
38457;SDS011;24239;48.058;10.486;2024-02-21T06:59:43;7.85;;;4.65;;
38457;SDS011;24239;48.058;10.486;2024-02-21T07:02:28;7.72;;;4.70;;
38457;SDS011;24239;48.058;10.486;2024-02-21T07:05:14;10.23;;;4.82;;
38457;SDS011;24239;48.058;10.486;2024-02-21T07:08:00;11.63;;;6.07;;
38457;SDS011;24239;48.058;10.486;2024-02-21T07:10:46;22.45;;;9.48;;
38457;SDS011;24239;48.058;10.486;2024-02-21T07:13:32;18.80;;;8.60;;
38457;SDS011;24239;48.058;10.486;2024-02-21T07:16:18;14.18;;;6.60;;
38457;SDS011;24239;48.058;10.486;2024-02-21T07:19:03;15.50;;;5.70;;
38457;SDS011;24239;48.058;10.486;2024-02-21T07:21:49;12.73;;;5.47;;
38457;SDS011;24239;48.058;10.486;2024-02-21T07:24:35;15.88;;;4.70;;
38457;SDS011;24239;48.058;10.486;2024-02-21T07:27:23;3.20;;;2.90;;
38457;SDS011;24239;48.058;10.486;2024-02-21T07:30:08;5.03;;;2.70;;
38457;SDS011;24239;48.058;10.486;2024-02-21T07:32:54;3.10;;;2.80;;
38457;SDS011;24239;48.058;10.486;2024-02-21T07:35:40;3.78;;;3.15;;
38457;SDS011;24239;48.058;10.486;2024-02-21T07:38:27;5.22;;;3.15;;
38457;SDS011;24239;48.058;10.486;2024-02-21T07:41:12;3.63;;;2.90;;
38457;SDS011;24239;48.058;10.486;2024-02-21T07:43:58;2.85;;;2.63;;
38457;SDS011;24239;48.058;10.486;2024-02-21T07:46:47;4.07;;;2.50;;
38457;SDS011;24239;48.058;10.486;2024-02-21T07:49:33;4.50;;;2.42;;
38457;SDS011;24239;48.058;10.486;2024-02-21T07:52:19;4.30;;;2.28;;
38457;SDS011;24239;48.058;10.486;2024-02-21T07:55:04;2.58;;;2.20;;
38457;SDS011;24239;48.058;10.486;2024-02-21T07:57:51;3.28;;;1.90;;
38457;SDS011;24239;48.058;10.486;2024-02-21T08:00:37;3.10;;;2.10;;
38457;SDS011;24239;48.058;10.486;2024-02-21T08:03:23;2.88;;;1.83;;
38457;SDS011;24239;48.058;10.486;2024-02-21T08:06:11;1.70;;;1.60;;
38457;SDS011;24239;48.058;10.486;2024-02-21T08:08:58;2.97;;;1.50;;
38457;SDS011;24239;48.058;10.486;2024-02-21T08:11:45;3.08;;;1.67;;
38457;SDS011;24239;48.058;10.486;2024-02-21T08:14:31;1.60;;;1.50;;
38457;SDS011;24239;48.058;10.486;2024-02-21T08:17:17;1.67;;;1.58;;
38457;SDS011;24239;48.058;10.486;2024-02-21T08:20:03;1.67;;;1.58;;
38457;SDS011;24239;48.058;10.486;2024-02-21T08:22:50;1.65;;;1.55;;
38457;SDS011;24239;48.058;10.486;2024-02-21T08:25:35;1.50;;;1.40;;
38457;SDS011;24239;48.058;10.486;2024-02-21T08:28:21;1.60;;;1.50;;
38457;SDS011;24239;48.058;10.486;2024-02-21T08:31:07;2.47;;;1.75;;
38457;SDS011;24239;48.058;10.486;2024-02-21T08:33:52;1.50;;;1.40;;
38457;SDS011;24239;48.058;10.486;2024-02-21T08:36:38;1.30;;;1.20;;
38457;SDS011;24239;48.058;10.486;2024-02-21T08:39:24;1.30;;;1.20;;
38457;SDS011;24239;48.058;10.486;2024-02-21T08:42:10;2.15;;;1.40;;
38457;SDS011;24239;48.058;10.486;2024-02-21T08:44:56;1.60;;;1.50;;
38457;SDS011;24239;48.058;10.486;2024-02-21T08:47:42;1.40;;;1.30;;
38457;SDS011;24239;48.058;10.486;2024-02-21T08:50:27;4.85;;;1.30;;
38457;SDS011;24239;48.058;10.486;2024-02-21T08:53:13;1.25;;;1.25;;
38457;SDS011;24239;48.058;10.486;2024-02-21T08:55:59;2.53;;;1.40;;
38457;SDS011;24239;48.058;10.486;2024-02-21T08:58:45;1.50;;;1.40;;
38457;SDS011;24239;48.058;10.486;2024-02-21T09:01:30;1.40;;;1.30;;
38457;SDS011;24239;48.058;10.486;2024-02-21T09:04:16;2.67;;;1.33;;
38457;SDS011;24239;48.058;10.486;2024-02-21T09:07:02;2.92;;;1.50;;
38457;SDS011;24239;48.058;10.486;2024-02-21T09:09:48;1.13;;;1.13;;
38457;SDS011;24239;48.058;10.486;2024-02-21T09:12:33;2.55;;;1.40;;
38457;SDS011;24239;48.058;10.486;2024-02-21T09:15:19;1.95;;;1.30;;
38457;SDS011;24239;48.058;10.486;2024-02-21T09:18:05;1.20;;;1.10;;
38457;SDS011;24239;48.058;10.486;2024-02-21T09:20:51;1.40;;;1.30;;
38457;SDS011;24239;48.058;10.486;2024-02-21T09:23:37;1.35;;;1.25;;
38457;SDS011;24239;48.058;10.486;2024-02-21T09:26:23;1.25;;;1.15;;
38457;SDS011;24239;48.058;10.486;2024-02-21T09:29:08;1.15;;;1.15;;
38457;SDS011;24239;48.058;10.486;2024-02-21T09:31:54;1.30;;;1.20;;
38457;SDS011;24239;48.058;10.486;2024-02-21T09:34:40;1.88;;;1.30;;
38457;SDS011;24239;48.058;10.486;2024-02-21T09:37:25;1.42;;;1.10;;
38457;SDS011;24239;48.058;10.486;2024-02-21T09:40:11;1.90;;;1.10;;
38457;SDS011;24239;48.058;10.486;2024-02-21T09:43:03;1.40;;;1.15;;
38457;SDS011;24239;48.058;10.486;2024-02-21T09:45:52;1.67;;;1.20;;
38457;SDS011;24239;48.058;10.486;2024-02-21T09:51:28;1.40;;;1.30;;
38457;SDS011;24239;48.058;10.486;2024-02-21T09:54:17;1.38;;;1.33;;
38457;SDS011;24239;48.058;10.486;2024-02-21T09:57:03;1.40;;;1.30;;
38457;SDS011;24239;48.058;10.486;2024-02-21T09:59:51;2.88;;;1.23;;
38457;SDS011;24239;48.058;10.486;2024-02-21T10:02:39;1.33;;;1.20;;
38457;SDS011;24239;48.058;10.486;2024-02-21T10:05:25;1.75;;;1.27;;
38457;SDS011;24239;48.058;10.486;2024-02-21T10:08:13;2.60;;;1.48;;
38457;SDS011;24239;48.058;10.486;2024-02-21T10:10:59;1.40;;;1.30;;
38457;SDS011;24239;48.058;10.486;2024-02-21T10:13:47;1.52;;;1.33;;
38457;SDS011;24239;48.058;10.486;2024-02-21T10:16:32;1.10;;;1.08;;
38457;SDS011;24239;48.058;10.486;2024-02-21T10:19:19;1.30;;;1.20;;
38457;SDS011;24239;48.058;10.486;2024-02-21T10:22:07;1.58;;;1.48;;
38457;SDS011;24239;48.058;10.486;2024-02-21T10:24:54;1.92;;;1.50;;
38457;SDS011;24239;48.058;10.486;2024-02-21T10:27:41;0.93;;;0.93;;
38457;SDS011;24239;48.058;10.486;2024-02-21T10:30:26;1.23;;;1.17;;
38457;SDS011;24239;48.058;10.486;2024-02-21T10:33:12;2.50;;;1.20;;
38457;SDS011;24239;48.058;10.486;2024-02-21T10:36:08;2.33;;;1.00;;
38457;SDS011;24239;48.058;10.486;2024-02-21T10:38:55;1.52;;;1.15;;
38457;SDS011;24239;48.058;10.486;2024-02-21T10:41:41;1.20;;;1.02;;
38457;SDS011;24239;48.058;10.486;2024-02-21T10:44:28;2.15;;;1.27;;
38457;SDS011;24239;48.058;10.486;2024-02-21T10:47:15;2.15;;;0.90;;
38457;SDS011;24239;48.058;10.486;2024-02-21T10:50:06;1.00;;;1.00;;
38457;SDS011;24239;48.058;10.486;2024-02-21T10:53:01;0.80;;;0.80;;
38457;SDS011;24239;48.058;10.486;2024-02-21T10:56:40;1.17;;;0.98;;
38457;SDS011;24239;48.058;10.486;2024-02-21T10:59:07;0.90;;;0.90;;
38457;SDS011;24239;48.058;10.486;2024-02-21T11:01:53;1.00;;;1.00;;
38457;SDS011;24239;48.058;10.486;2024-02-21T11:04:39;1.10;;;1.00;;
38457;SDS011;24239;48.058;10.486;2024-02-21T11:07:25;1.30;;;0.90;;
38457;SDS011;24239;48.058;10.486;2024-02-21T11:10:22;0.95;;;0.85;;
38457;SDS011;24239;48.058;10.486;2024-02-21T11:13:09;0.80;;;0.80;;
38457;SDS011;24239;48.058;10.486;2024-02-21T11:15:55;1.65;;;0.73;;
38457;SDS011;24239;48.058;10.486;2024-02-21T11:18:51;1.05;;;0.95;;
38457;SDS011;24239;48.058;10.486;2024-02-21T11:21:37;1.10;;;1.05;;
38457;SDS011;24239;48.058;10.486;2024-02-21T11:30:11;1.02;;;0.93;;
38457;SDS011;24239;48.058;10.486;2024-02-21T11:33:01;2.38;;;1.02;;
38457;SDS011;24239;48.058;10.486;2024-02-21T11:35:48;0.80;;;0.80;;
38457;SDS011;24239;48.058;10.486;2024-02-21T11:38:33;1.65;;;1.00;;
38457;SDS011;24239;48.058;10.486;2024-02-21T11:41:19;1.17;;;0.98;;
38457;SDS011;24239;48.058;10.486;2024-02-21T11:44:08;0.93;;;0.88;;
38457;SDS011;24239;48.058;10.486;2024-02-21T11:46:54;1.20;;;1.10;;
38457;SDS011;24239;48.058;10.486;2024-02-21T11:49:47;0.90;;;0.90;;
38457;SDS011;24239;48.058;10.486;2024-02-21T11:52:35;1.33;;;1.15;;
38457;SDS011;24239;48.058;10.486;2024-02-21T11:55:21;2.53;;;0.93;;
38457;SDS011;24239;48.058;10.486;2024-02-21T11:58:07;1.00;;;0.98;;
38457;SDS011;24239;48.058;10.486;2024-02-21T12:00:53;2.53;;;0.90;;
38457;SDS011;24239;48.058;10.486;2024-02-21T12:03:39;0.80;;;0.80;;
38457;SDS011;24239;48.058;10.486;2024-02-21T12:06:26;1.20;;;1.10;;
38457;SDS011;24239;48.058;10.486;2024-02-21T12:09:15;1.10;;;1.02;;
38457;SDS011;24239;48.058;10.486;2024-02-21T12:14:57;1.33;;;0.93;;
38457;SDS011;24239;48.058;10.486;2024-02-21T12:17:43;0.80;;;0.80;;
38457;SDS011;24239;48.058;10.486;2024-02-21T12:20:30;0.88;;;0.88;;
38457;SDS011;24239;48.058;10.486;2024-02-21T12:23:18;0.85;;;0.85;;
38457;SDS011;24239;48.058;10.486;2024-02-21T12:26:04;0.95;;;0.95;;
38457;SDS011;24239;48.058;10.486;2024-02-21T12:28:50;2.90;;;1.27;;
38457;SDS011;24239;48.058;10.486;2024-02-21T12:31:36;0.95;;;0.90;;
38457;SDS011;24239;48.058;10.486;2024-02-21T12:34:23;0.80;;;0.80;;
38457;SDS011;24239;48.058;10.486;2024-02-21T12:37:10;1.30;;;0.85;;
38457;SDS011;24239;48.058;10.486;2024-02-21T12:39:58;0.88;;;0.88;;
38457;SDS011;24239;48.058;10.486;2024-02-21T12:42:44;1.50;;;0.95;;
38457;SDS011;24239;48.058;10.486;2024-02-21T12:45:30;1.05;;;0.95;;
38457;SDS011;24239;48.058;10.486;2024-02-21T12:48:16;2.08;;;1.02;;
38457;SDS011;24239;48.058;10.486;2024-02-21T12:51:02;0.93;;;0.80;;
38457;SDS011;24239;48.058;10.486;2024-02-21T12:53:48;1.13;;;0.75;;
38457;SDS011;24239;48.058;10.486;2024-02-21T12:56:34;1.50;;;1.00;;
38457;SDS011;24239;48.058;10.486;2024-02-21T12:59:20;0.73;;;0.73;;
38457;SDS011;24239;48.058;10.486;2024-02-21T13:02:06;2.88;;;0.80;;
38457;SDS011;24239;48.058;10.486;2024-02-21T13:04:52;0.85;;;0.85;;
38457;SDS011;24239;48.058;10.486;2024-02-21T13:07:37;0.70;;;0.70;;
38457;SDS011;24239;48.058;10.486;2024-02-21T13:10:23;1.10;;;1.05;;
38457;SDS011;24239;48.058;10.486;2024-02-21T13:13:09;2.15;;;0.90;;
38457;SDS011;24239;48.058;10.486;2024-02-21T13:15:55;0.93;;;0.88;;
38457;SDS011;24239;48.058;10.486;2024-02-21T13:18:40;0.90;;;0.88;;
38457;SDS011;24239;48.058;10.486;2024-02-21T13:21:28;1.85;;;0.90;;
38457;SDS011;24239;48.058;10.486;2024-02-21T13:24:13;1.10;;;1.00;;
38457;SDS011;24239;48.058;10.486;2024-02-21T13:26:59;2.60;;;1.05;;
38457;SDS011;24239;48.058;10.486;2024-02-21T13:29:45;0.80;;;0.80;;
38457;SDS011;24239;48.058;10.486;2024-02-21T13:32:31;0.70;;;0.70;;
38457;SDS011;24239;48.058;10.486;2024-02-21T13:35:17;2.38;;;0.85;;
38457;SDS011;24239;48.058;10.486;2024-02-21T13:38:03;1.45;;;1.00;;
38457;SDS011;24239;48.058;10.486;2024-02-21T13:40:49;1.50;;;1.02;;
38457;SDS011;24239;48.058;10.486;2024-02-21T13:43:35;0.70;;;0.70;;
38457;SDS011;24239;48.058;10.486;2024-02-21T13:46:22;1.08;;;0.95;;
38457;SDS011;24239;48.058;10.486;2024-02-21T13:49:08;2.28;;;0.88;;
38457;SDS011;24239;48.058;10.486;2024-02-21T13:51:54;0.90;;;0.90;;
38457;SDS011;24239;48.058;10.486;2024-02-21T13:54:40;0.73;;;0.73;;
38457;SDS011;24239;48.058;10.486;2024-02-21T13:57:27;2.33;;;0.80;;
38457;SDS011;24239;48.058;10.486;2024-02-21T14:00:13;0.90;;;0.90;;
38457;SDS011;24239;48.058;10.486;2024-02-21T14:02:59;1.17;;;0.90;;
38457;SDS011;24239;48.058;10.486;2024-02-21T14:05:46;1.13;;;0.90;;
38457;SDS011;24239;48.058;10.486;2024-02-21T14:08:33;0.95;;;0.95;;
38457;SDS011;24239;48.058;10.486;2024-02-21T14:11:19;1.45;;;1.00;;
38457;SDS011;24239;48.058;10.486;2024-02-21T14:14:05;1.30;;;1.20;;
38457;SDS011;24239;48.058;10.486;2024-02-21T14:16:51;1.52;;;0.90;;
38457;SDS011;24239;48.058;10.486;2024-02-21T14:19:37;1.15;;;0.95;;
38457;SDS011;24239;48.058;10.486;2024-02-21T14:22:23;1.00;;;1.00;;
38457;SDS011;24239;48.058;10.486;2024-02-21T14:25:09;1.17;;;0.90;;
38457;SDS011;24239;48.058;10.486;2024-02-21T14:27:55;2.25;;;1.00;;
38457;SDS011;24239;48.058;10.486;2024-02-21T14:30:41;4.93;;;1.40;;
38457;SDS011;24239;48.058;10.486;2024-02-21T14:33:27;2.35;;;1.80;;
38457;SDS011;24239;48.058;10.486;2024-02-21T14:36:12;2.13;;;1.30;;
38457;SDS011;24239;48.058;10.486;2024-02-21T14:42:42;1.85;;;1.30;;
38457;SDS011;24239;48.058;10.486;2024-02-21T14:45:28;2.25;;;1.20;;
38457;SDS011;24239;48.058;10.486;2024-02-21T14:48:13;2.65;;;1.20;;
38457;SDS011;24239;48.058;10.486;2024-02-21T14:51:00;0.82;;;0.82;;
38457;SDS011;24239;48.058;10.486;2024-02-21T14:53:46;1.80;;;1.08;;
38457;SDS011;24239;48.058;10.486;2024-02-21T14:56:32;2.70;;;1.20;;
38457;SDS011;24239;48.058;10.486;2024-02-21T14:59:17;1.67;;;1.40;;
38457;SDS011;24239;48.058;10.486;2024-02-21T15:02:03;2.05;;;1.38;;
38457;SDS011;24239;48.058;10.486;2024-02-21T15:04:49;20.05;;;11.30;;
38457;SDS011;24239;48.058;10.486;2024-02-21T15:07:36;4.70;;;2.85;;
38457;SDS011;24239;48.058;10.486;2024-02-21T15:10:22;2.03;;;1.50;;
38457;SDS011;24239;48.058;10.486;2024-02-21T15:13:08;3.75;;;1.00;;
38457;SDS011;24239;48.058;10.486;2024-02-21T15:15:55;2.08;;;1.88;;
38457;SDS011;24239;48.058;10.486;2024-02-21T15:18:40;1.05;;;0.95;;
38457;SDS011;24239;48.058;10.486;2024-02-21T15:21:26;1.45;;;0.90;;
38457;SDS011;24239;48.058;10.486;2024-02-21T15:24:12;1.88;;;1.30;;
38457;SDS011;24239;48.058;10.486;2024-02-21T15:26:58;1.25;;;1.10;;
38457;SDS011;24239;48.058;10.486;2024-02-21T15:29:44;2.88;;;1.23;;
38457;SDS011;24239;48.058;10.486;2024-02-21T15:32:30;1.10;;;1.00;;
38457;SDS011;24239;48.058;10.486;2024-02-21T15:35:16;3.03;;;1.38;;
38457;SDS011;24239;48.058;10.486;2024-02-21T15:38:01;1.20;;;1.10;;
38457;SDS011;24239;48.058;10.486;2024-02-21T15:40:48;2.35;;;1.20;;
38457;SDS011;24239;48.058;10.486;2024-02-21T15:43:34;1.35;;;1.20;;
38457;SDS011;24239;48.058;10.486;2024-02-21T15:46:29;1.80;;;1.48;;
38457;SDS011;24239;48.058;10.486;2024-02-21T15:49:21;1.30;;;1.20;;
38457;SDS011;24239;48.058;10.486;2024-02-21T15:52:07;1.55;;;1.30;;
38457;SDS011;24239;48.058;10.486;2024-02-21T15:54:52;1.08;;;1.00;;
38457;SDS011;24239;48.058;10.486;2024-02-21T15:57:38;1.15;;;1.08;;
38457;SDS011;24239;48.058;10.486;2024-02-21T16:00:24;0.98;;;0.98;;
38457;SDS011;24239;48.058;10.486;2024-02-21T16:03:10;1.75;;;1.13;;
38457;SDS011;24239;48.058;10.486;2024-02-21T16:05:56;1.38;;;1.00;;
38457;SDS011;24239;48.058;10.486;2024-02-21T16:08:45;2.97;;;1.20;;
38457;SDS011;24239;48.058;10.486;2024-02-21T16:11:40;2.05;;;1.20;;
38457;SDS011;24239;48.058;10.486;2024-02-21T16:14:26;3.17;;;1.20;;
38457;SDS011;24239;48.058;10.486;2024-02-21T16:17:13;1.98;;;1.00;;
38457;SDS011;24239;48.058;10.486;2024-02-21T16:19:59;3.08;;;1.77;;
38457;SDS011;24239;48.058;10.486;2024-02-21T16:22:50;2.83;;;2.45;;
38457;SDS011;24239;48.058;10.486;2024-02-21T16:25:38;5.15;;;3.05;;
38457;SDS011;24239;48.058;10.486;2024-02-21T16:28:24;3.15;;;2.33;;
38457;SDS011;24239;48.058;10.486;2024-02-21T16:31:13;2.72;;;1.92;;
38457;SDS011;24239;48.058;10.486;2024-02-21T16:33:59;6.43;;;2.35;;
38457;SDS011;24239;48.058;10.486;2024-02-21T16:36:45;3.97;;;2.78;;
38457;SDS011;24239;48.058;10.486;2024-02-21T16:39:32;3.05;;;2.20;;
38457;SDS011;24239;48.058;10.486;2024-02-21T16:42:18;4.43;;;2.00;;
38457;SDS011;24239;48.058;10.486;2024-02-21T16:45:04;5.00;;;2.15;;
38457;SDS011;24239;48.058;10.486;2024-02-21T16:47:50;3.17;;;1.92;;
38457;SDS011;24239;48.058;10.486;2024-02-21T16:50:36;2.63;;;1.90;;